sensor_id;sensor_type;location;lat;lon;timestamp;P1;durP1;ratioP1;P2;durP2;ratioP2
53293;SDS011;39181;53.440;5.644;2022-07-06T00:01:21;3.00;;;0.50;;
53293;SDS011;39181;53.440;5.644;2022-07-06T00:03:47;5.13;;;0.80;;
53293;SDS011;39181;53.440;5.644;2022-07-06T00:06:12;7.53;;;0.95;;
53293;SDS011;39181;53.440;5.644;2022-07-06T00:08:38;3.50;;;0.55;;
53293;SDS011;39181;53.440;5.644;2022-07-06T00:11:04;6.43;;;1.08;;
53293;SDS011;39181;53.440;5.644;2022-07-06T00:13:30;7.40;;;0.70;;
53293;SDS011;39181;53.440;5.644;2022-07-06T00:15:56;10.90;;;1.02;;
53293;SDS011;39181;53.440;5.644;2022-07-06T00:18:21;3.53;;;0.80;;
53293;SDS011;39181;53.440;5.644;2022-07-06T00:20:47;5.95;;;0.60;;
53293;SDS011;39181;53.440;5.644;2022-07-06T00:23:13;4.20;;;0.55;;
53293;SDS011;39181;53.440;5.644;2022-07-06T00:25:38;4.03;;;0.70;;
53293;SDS011;39181;53.440;5.644;2022-07-06T00:28:04;2.53;;;0.45;;
53293;SDS011;39181;53.440;5.644;2022-07-06T00:30:29;4.07;;;0.50;;
53293;SDS011;39181;53.440;5.644;2022-07-06T00:32:55;7.80;;;0.88;;
53293;SDS011;39181;53.440;5.644;2022-07-06T00:35:23;6.82;;;0.93;;
53293;SDS011;39181;53.440;5.644;2022-07-06T00:37:49;6.13;;;0.73;;
53293;SDS011;39181;53.440;5.644;2022-07-06T00:40:15;8.05;;;0.60;;
53293;SDS011;39181;53.440;5.644;2022-07-06T00:42:44;3.60;;;0.50;;
53293;SDS011;39181;53.440;5.644;2022-07-06T00:45:11;5.88;;;0.47;;
53293;SDS011;39181;53.440;5.644;2022-07-06T00:47:39;8.32;;;1.10;;
53293;SDS011;39181;53.440;5.644;2022-07-06T00:50:06;3.50;;;1.02;;
53293;SDS011;39181;53.440;5.644;2022-07-06T00:52:39;3.90;;;0.70;;
53293;SDS011;39181;53.440;5.644;2022-07-06T00:55:05;3.75;;;0.52;;
53293;SDS011;39181;53.440;5.644;2022-07-06T00:57:31;6.18;;;0.77;;
53293;SDS011;39181;53.440;5.644;2022-07-06T00:59:57;9.10;;;0.63;;
53293;SDS011;39181;53.440;5.644;2022-07-06T01:02:23;7.95;;;0.80;;
53293;SDS011;39181;53.440;5.644;2022-07-06T01:04:49;3.03;;;0.60;;
53293;SDS011;39181;53.440;5.644;2022-07-06T01:07:14;5.57;;;0.30;;
53293;SDS011;39181;53.440;5.644;2022-07-06T01:09:40;5.18;;;0.60;;
53293;SDS011;39181;53.440;5.644;2022-07-06T01:12:05;4.18;;;0.47;;
53293;SDS011;39181;53.440;5.644;2022-07-06T01:14:31;5.13;;;0.60;;
53293;SDS011;39181;53.440;5.644;2022-07-06T01:16:58;5.68;;;0.45;;
53293;SDS011;39181;53.440;5.644;2022-07-06T01:19:23;6.57;;;0.77;;
53293;SDS011;39181;53.440;5.644;2022-07-06T01:21:49;5.60;;;0.70;;
53293;SDS011;39181;53.440;5.644;2022-07-06T01:24:15;3.38;;;0.47;;
53293;SDS011;39181;53.440;5.644;2022-07-06T01:26:40;8.35;;;0.82;;
53293;SDS011;39181;53.440;5.644;2022-07-06T01:29:06;6.22;;;0.63;;
53293;SDS011;39181;53.440;5.644;2022-07-06T01:31:31;5.82;;;0.80;;
53293;SDS011;39181;53.440;5.644;2022-07-06T01:33:57;4.35;;;1.00;;
53293;SDS011;39181;53.440;5.644;2022-07-06T01:36:23;10.20;;;0.68;;
53293;SDS011;39181;53.440;5.644;2022-07-06T01:38:50;4.18;;;0.70;;
53293;SDS011;39181;53.440;5.644;2022-07-06T01:41:17;7.25;;;1.13;;
53293;SDS011;39181;53.440;5.644;2022-07-06T01:43:44;6.60;;;0.50;;
53293;SDS011;39181;53.440;5.644;2022-07-06T01:46:10;5.47;;;0.70;;
53293;SDS011;39181;53.440;5.644;2022-07-06T01:48:36;7.70;;;0.77;;
53293;SDS011;39181;53.440;5.644;2022-07-06T01:51:03;8.60;;;0.90;;
53293;SDS011;39181;53.440;5.644;2022-07-06T01:53:29;10.50;;;1.00;;
53293;SDS011;39181;53.440;5.644;2022-07-06T01:55:55;5.68;;;1.00;;
53293;SDS011;39181;53.440;5.644;2022-07-06T01:58:20;4.53;;;0.77;;
53293;SDS011;39181;53.440;5.644;2022-07-06T02:00:46;3.15;;;0.85;;
53293;SDS011;39181;53.440;5.644;2022-07-06T02:03:12;2.47;;;0.40;;
53293;SDS011;39181;53.440;5.644;2022-07-06T02:05:37;7.35;;;0.60;;
53293;SDS011;39181;53.440;5.644;2022-07-06T02:08:03;4.15;;;0.32;;
53293;SDS011;39181;53.440;5.644;2022-07-06T02:10:28;2.53;;;0.30;;
53293;SDS011;39181;53.440;5.644;2022-07-06T02:12:54;5.70;;;0.77;;
53293;SDS011;39181;53.440;5.644;2022-07-06T02:15:19;4.40;;;0.60;;
53293;SDS011;39181;53.440;5.644;2022-07-06T02:17:45;3.38;;;0.30;;
53293;SDS011;39181;53.440;5.644;2022-07-06T02:20:11;5.53;;;1.00;;
53293;SDS011;39181;53.440;5.644;2022-07-06T02:22:36;4.28;;;0.75;;
53293;SDS011;39181;53.440;5.644;2022-07-06T02:25:02;4.65;;;0.88;;
53293;SDS011;39181;53.440;5.644;2022-07-06T02:27:28;6.70;;;0.60;;
53293;SDS011;39181;53.440;5.644;2022-07-06T02:29:53;5.72;;;0.68;;
53293;SDS011;39181;53.440;5.644;2022-07-06T02:32:19;6.60;;;0.90;;
53293;SDS011;39181;53.440;5.644;2022-07-06T02:34:44;11.45;;;0.95;;
53293;SDS011;39181;53.440;5.644;2022-07-06T02:37:10;1.67;;;0.40;;
53293;SDS011;39181;53.440;5.644;2022-07-06T02:39:36;4.15;;;0.60;;
53293;SDS011;39181;53.440;5.644;2022-07-06T02:42:01;5.82;;;1.00;;
53293;SDS011;39181;53.440;5.644;2022-07-06T02:44:27;5.07;;;0.60;;
53293;SDS011;39181;53.440;5.644;2022-07-06T02:46:52;5.32;;;0.70;;
53293;SDS011;39181;53.440;5.644;2022-07-06T02:49:18;2.15;;;0.60;;
53293;SDS011;39181;53.440;5.644;2022-07-06T02:51:43;2.83;;;0.47;;
53293;SDS011;39181;53.440;5.644;2022-07-06T02:54:09;4.78;;;0.40;;
53293;SDS011;39181;53.440;5.644;2022-07-06T02:56:35;4.78;;;0.40;;
53293;SDS011;39181;53.440;5.644;2022-07-06T02:59:00;2.83;;;0.40;;
53293;SDS011;39181;53.440;5.644;2022-07-06T03:01:26;4.47;;;0.40;;
53293;SDS011;39181;53.440;5.644;2022-07-06T03:03:52;5.63;;;0.55;;
53293;SDS011;39181;53.440;5.644;2022-07-06T03:06:17;3.63;;;0.50;;
53293;SDS011;39181;53.440;5.644;2022-07-06T03:08:43;4.85;;;0.47;;
53293;SDS011;39181;53.440;5.644;2022-07-06T03:11:08;4.35;;;0.30;;
53293;SDS011;39181;53.440;5.644;2022-07-06T03:13:34;9.07;;;0.47;;
53293;SDS011;39181;53.440;5.644;2022-07-06T03:16:00;3.83;;;0.65;;
53293;SDS011;39181;53.440;5.644;2022-07-06T03:18:26;5.72;;;1.05;;
53293;SDS011;39181;53.440;5.644;2022-07-06T03:20:51;4.82;;;0.40;;
53293;SDS011;39181;53.440;5.644;2022-07-06T03:23:17;2.70;;;0.32;;
53293;SDS011;39181;53.440;5.644;2022-07-06T03:25:42;3.03;;;0.63;;
53293;SDS011;39181;53.440;5.644;2022-07-06T03:28:08;5.07;;;0.60;;
53293;SDS011;39181;53.440;5.644;2022-07-06T03:30:34;6.10;;;0.50;;
53293;SDS011;39181;53.440;5.644;2022-07-06T03:32:59;5.55;;;0.50;;
53293;SDS011;39181;53.440;5.644;2022-07-06T03:35:25;2.30;;;0.50;;
53293;SDS011;39181;53.440;5.644;2022-07-06T03:37:50;1.65;;;0.47;;
53293;SDS011;39181;53.440;5.644;2022-07-06T03:40:16;6.68;;;0.60;;
53293;SDS011;39181;53.440;5.644;2022-07-06T03:42:41;5.22;;;0.70;;
53293;SDS011;39181;53.440;5.644;2022-07-06T03:45:07;8.18;;;0.70;;
53293;SDS011;39181;53.440;5.644;2022-07-06T03:47:33;6.18;;;0.70;;
53293;SDS011;39181;53.440;5.644;2022-07-06T03:49:59;8.05;;;0.80;;
53293;SDS011;39181;53.440;5.644;2022-07-06T03:52:24;5.57;;;0.52;;
53293;SDS011;39181;53.440;5.644;2022-07-06T03:54:50;5.57;;;0.50;;
53293;SDS011;39181;53.440;5.644;2022-07-06T03:57:15;3.85;;;0.60;;
53293;SDS011;39181;53.440;5.644;2022-07-06T03:59:41;2.55;;;0.50;;
53293;SDS011;39181;53.440;5.644;2022-07-06T04:02:07;5.55;;;1.00;;
53293;SDS011;39181;53.440;5.644;2022-07-06T04:04:33;2.22;;;0.57;;
53293;SDS011;39181;53.440;5.644;2022-07-06T04:06:59;7.93;;;0.63;;
53293;SDS011;39181;53.440;5.644;2022-07-06T04:09:25;4.45;;;0.52;;
53293;SDS011;39181;53.440;5.644;2022-07-06T04:11:51;5.22;;;0.60;;
53293;SDS011;39181;53.440;5.644;2022-07-06T04:14:17;3.28;;;1.00;;
53293;SDS011;39181;53.440;5.644;2022-07-06T04:16:42;2.47;;;0.40;;
53293;SDS011;39181;53.440;5.644;2022-07-06T04:19:08;10.43;;;0.70;;
53293;SDS011;39181;53.440;5.644;2022-07-06T04:21:34;4.40;;;0.93;;
53293;SDS011;39181;53.440;5.644;2022-07-06T04:24:00;5.82;;;0.85;;
53293;SDS011;39181;53.440;5.644;2022-07-06T04:26:25;3.58;;;0.60;;
53293;SDS011;39181;53.440;5.644;2022-07-06T04:28:51;5.38;;;1.13;;
53293;SDS011;39181;53.440;5.644;2022-07-06T04:31:17;2.15;;;0.40;;
53293;SDS011;39181;53.440;5.644;2022-07-06T04:33:42;5.53;;;0.50;;
53293;SDS011;39181;53.440;5.644;2022-07-06T04:36:08;7.03;;;0.68;;
53293;SDS011;39181;53.440;5.644;2022-07-06T04:38:34;7.55;;;0.80;;
53293;SDS011;39181;53.440;5.644;2022-07-06T04:41:01;7.57;;;0.70;;
53293;SDS011;39181;53.440;5.644;2022-07-06T04:43:26;5.00;;;0.47;;
53293;SDS011;39181;53.440;5.644;2022-07-06T04:45:52;2.40;;;0.50;;
53293;SDS011;39181;53.440;5.644;2022-07-06T04:48:17;5.07;;;0.73;;
53293;SDS011;39181;53.440;5.644;2022-07-06T04:50:43;4.93;;;0.30;;
53293;SDS011;39181;53.440;5.644;2022-07-06T04:53:08;4.18;;;0.60;;
53293;SDS011;39181;53.440;5.644;2022-07-06T04:55:34;4.40;;;0.47;;
53293;SDS011;39181;53.440;5.644;2022-07-06T04:58:00;5.47;;;0.95;;
53293;SDS011;39181;53.440;5.644;2022-07-06T05:00:25;5.53;;;0.70;;
53293;SDS011;39181;53.440;5.644;2022-07-06T05:02:51;7.47;;;0.80;;
53293;SDS011;39181;53.440;5.644;2022-07-06T05:05:16;3.70;;;0.40;;
53293;SDS011;39181;53.440;5.644;2022-07-06T05:07:42;3.28;;;0.40;;
53293;SDS011;39181;53.440;5.644;2022-07-06T05:10:08;4.60;;;0.70;;
53293;SDS011;39181;53.440;5.644;2022-07-06T05:12:34;5.13;;;1.05;;
53293;SDS011;39181;53.440;5.644;2022-07-06T05:15:00;4.53;;;0.50;;
53293;SDS011;39181;53.440;5.644;2022-07-06T05:17:26;5.88;;;0.50;;
53293;SDS011;39181;53.440;5.644;2022-07-06T05:19:52;3.63;;;0.40;;
53293;SDS011;39181;53.440;5.644;2022-07-06T05:22:17;4.70;;;0.40;;
53293;SDS011;39181;53.440;5.644;2022-07-06T05:24:43;2.08;;;0.22;;
53293;SDS011;39181;53.440;5.644;2022-07-06T05:27:09;2.25;;;0.32;;
53293;SDS011;39181;53.440;5.644;2022-07-06T05:29:35;3.13;;;0.22;;
53293;SDS011;39181;53.440;5.644;2022-07-06T05:32:00;3.90;;;0.30;;
53293;SDS011;39181;53.440;5.644;2022-07-06T05:34:27;3.00;;;0.70;;
53293;SDS011;39181;53.440;5.644;2022-07-06T05:36:52;2.63;;;0.30;;
53293;SDS011;39181;53.440;5.644;2022-07-06T05:39:18;2.08;;;0.30;;
53293;SDS011;39181;53.440;5.644;2022-07-06T05:41:47;2.80;;;0.50;;
53293;SDS011;39181;53.440;5.644;2022-07-06T05:44:13;2.60;;;0.50;;
53293;SDS011;39181;53.440;5.644;2022-07-06T05:46:39;4.68;;;0.40;;
53293;SDS011;39181;53.440;5.644;2022-07-06T05:49:05;3.25;;;0.55;;
53293;SDS011;39181;53.440;5.644;2022-07-06T05:51:49;6.20;;;0.52;;
53293;SDS011;39181;53.440;5.644;2022-07-06T05:54:15;4.72;;;0.45;;
53293;SDS011;39181;53.440;5.644;2022-07-06T05:56:41;2.25;;;0.30;;
53293;SDS011;39181;53.440;5.644;2022-07-06T05:59:06;5.50;;;0.50;;
53293;SDS011;39181;53.440;5.644;2022-07-06T06:01:32;2.55;;;0.17;;
53293;SDS011;39181;53.440;5.644;2022-07-06T06:03:58;1.30;;;0.20;;
53293;SDS011;39181;53.440;5.644;2022-07-06T06:06:24;2.80;;;0.25;;
53293;SDS011;39181;53.440;5.644;2022-07-06T06:08:51;2.22;;;0.32;;
53293;SDS011;39181;53.440;5.644;2022-07-06T06:11:16;3.85;;;0.52;;
53293;SDS011;39181;53.440;5.644;2022-07-06T06:13:42;3.63;;;0.50;;
53293;SDS011;39181;53.440;5.644;2022-07-06T06:16:08;2.15;;;0.70;;
53293;SDS011;39181;53.440;5.644;2022-07-06T06:18:33;3.72;;;0.40;;
53293;SDS011;39181;53.440;5.644;2022-07-06T06:20:59;2.67;;;0.47;;
53293;SDS011;39181;53.440;5.644;2022-07-06T06:23:24;3.47;;;0.52;;
53293;SDS011;39181;53.440;5.644;2022-07-06T06:25:50;4.57;;;0.50;;
53293;SDS011;39181;53.440;5.644;2022-07-06T06:28:16;2.58;;;0.50;;
53293;SDS011;39181;53.440;5.644;2022-07-06T06:30:41;3.95;;;0.35;;
53293;SDS011;39181;53.440;5.644;2022-07-06T06:35:33;3.35;;;0.40;;
53293;SDS011;39181;53.440;5.644;2022-07-06T06:38:00;3.72;;;0.40;;
53293;SDS011;39181;53.440;5.644;2022-07-06T06:40:25;3.72;;;0.50;;
53293;SDS011;39181;53.440;5.644;2022-07-06T06:42:51;3.30;;;0.30;;
53293;SDS011;39181;53.440;5.644;2022-07-06T06:45:16;4.75;;;0.50;;
53293;SDS011;39181;53.440;5.644;2022-07-06T06:47:42;4.15;;;0.82;;
53293;SDS011;39181;53.440;5.644;2022-07-06T06:50:07;2.08;;;0.45;;
53293;SDS011;39181;53.440;5.644;2022-07-06T06:52:33;5.28;;;0.65;;
53293;SDS011;39181;53.440;5.644;2022-07-06T06:54:59;2.55;;;0.30;;
53293;SDS011;39181;53.440;5.644;2022-07-06T06:57:25;2.60;;;0.40;;
53293;SDS011;39181;53.440;5.644;2022-07-06T06:59:50;3.60;;;0.40;;
53293;SDS011;39181;53.440;5.644;2022-07-06T07:02:16;1.27;;;0.20;;
53293;SDS011;39181;53.440;5.644;2022-07-06T07:04:42;5.97;;;0.50;;
53293;SDS011;39181;53.440;5.644;2022-07-06T07:07:08;2.22;;;0.50;;
53293;SDS011;39181;53.440;5.644;2022-07-06T07:09:33;4.95;;;0.50;;
53293;SDS011;39181;53.440;5.644;2022-07-06T07:11:59;2.60;;;0.30;;
53293;SDS011;39181;53.440;5.644;2022-07-06T07:14:24;3.40;;;0.43;;
53293;SDS011;39181;53.440;5.644;2022-07-06T07:16:52;2.03;;;0.52;;
53293;SDS011;39181;53.440;5.644;2022-07-06T07:19:18;5.45;;;0.35;;
53293;SDS011;39181;53.440;5.644;2022-07-06T07:21:43;2.30;;;0.43;;
53293;SDS011;39181;53.440;5.644;2022-07-06T07:24:09;4.53;;;0.60;;
53293;SDS011;39181;53.440;5.644;2022-07-06T07:26:35;4.45;;;0.63;;
53293;SDS011;39181;53.440;5.644;2022-07-06T07:29:01;2.75;;;0.77;;
53293;SDS011;39181;53.440;5.644;2022-07-06T07:31:26;5.25;;;0.70;;
53293;SDS011;39181;53.440;5.644;2022-07-06T07:33:52;2.38;;;0.40;;
53293;SDS011;39181;53.440;5.644;2022-07-06T07:36:20;3.47;;;0.50;;
53293;SDS011;39181;53.440;5.644;2022-07-06T07:38:45;2.33;;;0.60;;
53293;SDS011;39181;53.440;5.644;2022-07-06T07:41:11;3.72;;;0.35;;
53293;SDS011;39181;53.440;5.644;2022-07-06T07:43:38;3.78;;;1.02;;
53293;SDS011;39181;53.440;5.644;2022-07-06T07:46:04;2.00;;;0.47;;
53293;SDS011;39181;53.440;5.644;2022-07-06T07:48:30;3.50;;;0.50;;
53293;SDS011;39181;53.440;5.644;2022-07-06T07:50:55;4.15;;;0.70;;
53293;SDS011;39181;53.440;5.644;2022-07-06T07:53:21;2.80;;;0.40;;
53293;SDS011;39181;53.440;5.644;2022-07-06T07:55:47;3.60;;;0.60;;
53293;SDS011;39181;53.440;5.644;2022-07-06T07:58:12;5.00;;;1.23;;
53293;SDS011;39181;53.440;5.644;2022-07-06T08:00:38;4.93;;;0.40;;
53293;SDS011;39181;53.440;5.644;2022-07-06T08:03:04;2.58;;;0.50;;
53293;SDS011;39181;53.440;5.644;2022-07-06T08:05:30;6.25;;;1.13;;
53293;SDS011;39181;53.440;5.644;2022-07-06T08:07:55;2.75;;;0.55;;
53293;SDS011;39181;53.440;5.644;2022-07-06T08:10:21;3.22;;;0.57;;
53293;SDS011;39181;53.440;5.644;2022-07-06T08:12:47;4.75;;;0.60;;
53293;SDS011;39181;53.440;5.644;2022-07-06T08:15:12;5.18;;;0.50;;
53293;SDS011;39181;53.440;5.644;2022-07-06T08:17:38;1.08;;;0.30;;
53293;SDS011;39181;53.440;5.644;2022-07-06T08:20:05;5.13;;;0.73;;
53293;SDS011;39181;53.440;5.644;2022-07-06T08:22:31;4.82;;;0.85;;
53293;SDS011;39181;53.440;5.644;2022-07-06T08:24:57;6.90;;;0.75;;
53293;SDS011;39181;53.440;5.644;2022-07-06T08:27:23;2.38;;;0.57;;
53293;SDS011;39181;53.440;5.644;2022-07-06T08:29:49;6.43;;;0.98;;
53293;SDS011;39181;53.440;5.644;2022-07-06T08:32:17;4.07;;;0.50;;
53293;SDS011;39181;53.440;5.644;2022-07-06T08:34:44;2.20;;;0.65;;
53293;SDS011;39181;53.440;5.644;2022-07-06T08:37:12;4.10;;;0.50;;
53293;SDS011;39181;53.440;5.644;2022-07-06T08:39:38;5.25;;;0.52;;
53293;SDS011;39181;53.440;5.644;2022-07-06T08:42:04;4.13;;;0.80;;
53293;SDS011;39181;53.440;5.644;2022-07-06T08:44:32;2.95;;;0.32;;
53293;SDS011;39181;53.440;5.644;2022-07-06T08:47:01;5.78;;;0.60;;
53293;SDS011;39181;53.440;5.644;2022-07-06T08:49:30;2.50;;;0.35;;
53293;SDS011;39181;53.440;5.644;2022-07-06T08:51:57;4.30;;;0.60;;
53293;SDS011;39181;53.440;5.644;2022-07-06T08:54:23;10.20;;;0.65;;
53293;SDS011;39181;53.440;5.644;2022-07-06T08:56:49;2.65;;;0.60;;
53293;SDS011;39181;53.440;5.644;2022-07-06T08:59:15;3.85;;;0.80;;
53293;SDS011;39181;53.440;5.644;2022-07-06T09:01:41;5.80;;;0.65;;
53293;SDS011;39181;53.440;5.644;2022-07-06T09:04:09;1.90;;;0.70;;
53293;SDS011;39181;53.440;5.644;2022-07-06T09:06:38;1.75;;;0.38;;
53293;SDS011;39181;53.440;5.644;2022-07-06T09:09:07;2.90;;;0.40;;
53293;SDS011;39181;53.440;5.644;2022-07-06T09:11:34;5.35;;;0.75;;
53293;SDS011;39181;53.440;5.644;2022-07-06T09:14:01;4.00;;;0.45;;
53293;SDS011;39181;53.440;5.644;2022-07-06T09:16:27;1.23;;;0.40;;
53293;SDS011;39181;53.440;5.644;2022-07-06T09:18:54;5.22;;;0.50;;
53293;SDS011;39181;53.440;5.644;2022-07-06T09:21:23;4.28;;;0.73;;
53293;SDS011;39181;53.440;5.644;2022-07-06T09:23:53;1.45;;;0.30;;
53293;SDS011;39181;53.440;5.644;2022-07-06T09:26:23;3.33;;;0.88;;
53293;SDS011;39181;53.440;5.644;2022-07-06T09:28:49;2.17;;;0.40;;
53293;SDS011;39181;53.440;5.644;2022-07-06T09:31:15;2.72;;;0.40;;
53293;SDS011;39181;53.440;5.644;2022-07-06T09:33:52;3.72;;;0.70;;
53293;SDS011;39181;53.440;5.644;2022-07-06T09:36:36;3.92;;;0.60;;
53293;SDS011;39181;53.440;5.644;2022-07-06T09:41:50;2.72;;;0.17;;
53293;SDS011;39181;53.440;5.644;2022-07-06T09:44:18;2.50;;;0.40;;
53293;SDS011;39181;53.440;5.644;2022-07-06T09:46:49;1.95;;;0.73;;
53293;SDS011;39181;53.440;5.644;2022-07-06T09:49:19;2.05;;;0.60;;
53293;SDS011;39181;53.440;5.644;2022-07-06T09:51:46;4.68;;;0.43;;
53293;SDS011;39181;53.440;5.644;2022-07-06T09:54:13;1.48;;;0.40;;
53293;SDS011;39181;53.440;5.644;2022-07-06T09:56:40;2.10;;;0.30;;
53293;SDS011;39181;53.440;5.644;2022-07-06T09:59:16;0.95;;;0.25;;
53293;SDS011;39181;53.440;5.644;2022-07-06T10:01:53;2.83;;;0.40;;
53293;SDS011;39181;53.440;5.644;2022-07-06T10:04:20;1.45;;;0.40;;
53293;SDS011;39181;53.440;5.644;2022-07-06T10:06:47;0.98;;;0.30;;
53293;SDS011;39181;53.440;5.644;2022-07-06T10:09:13;7.93;;;0.45;;
53293;SDS011;39181;53.440;5.644;2022-07-06T10:11:40;0.93;;;0.43;;
53293;SDS011;39181;53.440;5.644;2022-07-06T10:14:12;4.07;;;0.32;;
53293;SDS011;39181;53.440;5.644;2022-07-06T10:16:41;1.38;;;0.30;;
53293;SDS011;39181;53.440;5.644;2022-07-06T10:19:08;1.08;;;0.28;;
53293;SDS011;39181;53.440;5.644;2022-07-06T10:21:37;1.35;;;0.30;;
53293;SDS011;39181;53.440;5.644;2022-07-06T10:24:05;2.92;;;0.30;;
53293;SDS011;39181;53.440;5.644;2022-07-06T10:26:33;5.70;;;0.40;;
53293;SDS011;39181;53.440;5.644;2022-07-06T10:29:00;3.40;;;0.40;;
53293;SDS011;39181;53.440;5.644;2022-07-06T10:31:26;1.33;;;0.22;;
53293;SDS011;39181;53.440;5.644;2022-07-06T10:33:54;1.95;;;0.63;;
53293;SDS011;39181;53.440;5.644;2022-07-06T10:36:25;1.60;;;0.28;;
53293;SDS011;39181;53.440;5.644;2022-07-06T10:38:52;2.72;;;0.30;;
53293;SDS011;39181;53.440;5.644;2022-07-06T10:41:18;3.72;;;0.40;;
53293;SDS011;39181;53.440;5.644;2022-07-06T10:43:56;1.60;;;0.40;;
53293;SDS011;39181;53.440;5.644;2022-07-06T10:46:23;2.20;;;0.22;;
53293;SDS011;39181;53.440;5.644;2022-07-06T10:48:52;6.00;;;1.10;;
53293;SDS011;39181;53.440;5.644;2022-07-06T10:51:26;4.80;;;0.60;;
53293;SDS011;39181;53.440;5.644;2022-07-06T10:53:55;4.28;;;0.75;;
53293;SDS011;39181;53.440;5.644;2022-07-06T10:56:31;2.85;;;0.40;;
53293;SDS011;39181;53.440;5.644;2022-07-06T10:59:02;3.95;;;0.52;;
53293;SDS011;39181;53.440;5.644;2022-07-06T11:01:28;3.45;;;0.70;;
53293;SDS011;39181;53.440;5.644;2022-07-06T11:06:23;4.68;;;0.50;;
53293;SDS011;39181;53.440;5.644;2022-07-06T11:19:16;2.67;;;0.50;;
53293;SDS011;39181;53.440;5.644;2022-07-06T11:21:47;4.07;;;0.60;;
53293;SDS011;39181;53.440;5.644;2022-07-06T11:24:23;2.78;;;0.88;;
53293;SDS011;39181;53.440;5.644;2022-07-06T11:26:50;3.22;;;0.60;;
53293;SDS011;39181;53.440;5.644;2022-07-06T11:29:18;6.43;;;0.50;;
53293;SDS011;39181;53.440;5.644;2022-07-06T11:31:48;4.03;;;0.60;;
53293;SDS011;39181;53.440;5.644;2022-07-06T11:34:25;3.20;;;0.60;;
53293;SDS011;39181;53.440;5.644;2022-07-06T11:37:01;4.75;;;0.52;;
53293;SDS011;39181;53.440;5.644;2022-07-06T11:39:32;1.52;;;0.32;;
53293;SDS011;39181;53.440;5.644;2022-07-06T11:42:00;6.72;;;1.95;;
53293;SDS011;39181;53.440;5.644;2022-07-06T11:44:28;7.25;;;1.98;;
53293;SDS011;39181;53.440;5.644;2022-07-06T11:46:55;2.67;;;0.70;;
53293;SDS011;39181;53.440;5.644;2022-07-06T11:49:22;2.55;;;0.55;;
53293;SDS011;39181;53.440;5.644;2022-07-06T11:51:57;4.43;;;0.70;;
53293;SDS011;39181;53.440;5.644;2022-07-06T11:54:23;4.20;;;1.05;;
53293;SDS011;39181;53.440;5.644;2022-07-06T11:56:50;4.28;;;1.13;;
53293;SDS011;39181;53.440;5.644;2022-07-06T11:59:29;4.00;;;0.82;;
53293;SDS011;39181;53.440;5.644;2022-07-06T12:04:36;3.00;;;1.20;;
53293;SDS011;39181;53.440;5.644;2022-07-06T12:07:03;12.15;;;1.13;;
53293;SDS011;39181;53.440;5.644;2022-07-06T12:09:33;3.60;;;0.82;;
53293;SDS011;39181;53.440;5.644;2022-07-06T12:12:01;6.22;;;0.77;;
53293;SDS011;39181;53.440;5.644;2022-07-06T12:14:28;4.75;;;0.90;;
53293;SDS011;39181;53.440;5.644;2022-07-06T12:17:02;2.63;;;0.60;;
53293;SDS011;39181;53.440;5.644;2022-07-06T12:19:29;4.53;;;0.90;;
53293;SDS011;39181;53.440;5.644;2022-07-06T12:21:54;6.75;;;1.10;;
53293;SDS011;39181;53.440;5.644;2022-07-06T12:24:25;3.20;;;1.33;;
53293;SDS011;39181;53.440;5.644;2022-07-06T12:26:58;9.25;;;0.80;;
53293;SDS011;39181;53.440;5.644;2022-07-06T12:29:36;5.53;;;0.82;;
53293;SDS011;39181;53.440;5.644;2022-07-06T12:32:02;4.00;;;0.85;;
53293;SDS011;39181;53.440;5.644;2022-07-06T12:34:28;9.15;;;1.10;;
53293;SDS011;39181;53.440;5.644;2022-07-06T12:37:02;7.75;;;1.10;;
53293;SDS011;39181;53.440;5.644;2022-07-06T12:39:31;8.35;;;1.70;;
53293;SDS011;39181;53.440;5.644;2022-07-06T12:42:05;8.32;;;1.25;;
53293;SDS011;39181;53.440;5.644;2022-07-06T12:44:31;7.47;;;1.23;;
53293;SDS011;39181;53.440;5.644;2022-07-06T12:47:04;4.65;;;0.90;;
53293;SDS011;39181;53.440;5.644;2022-07-06T12:49:31;5.40;;;0.98;;
53293;SDS011;39181;53.440;5.644;2022-07-06T12:52:00;6.30;;;1.10;;
53293;SDS011;39181;53.440;5.644;2022-07-06T12:54:32;6.10;;;1.00;;
53293;SDS011;39181;53.440;5.644;2022-07-06T12:59:41;4.47;;;0.80;;
53293;SDS011;39181;53.440;5.644;2022-07-06T13:02:10;8.75;;;1.70;;
53293;SDS011;39181;53.440;5.644;2022-07-06T13:04:43;7.25;;;0.75;;
53293;SDS011;39181;53.440;5.644;2022-07-06T13:07:18;8.82;;;1.30;;
53293;SDS011;39181;53.440;5.644;2022-07-06T13:09:44;7.10;;;1.52;;
53293;SDS011;39181;53.440;5.644;2022-07-06T13:12:10;5.32;;;1.20;;
53293;SDS011;39181;53.440;5.644;2022-07-06T13:14:36;4.18;;;0.80;;
53293;SDS011;39181;53.440;5.644;2022-07-06T13:17:02;7.35;;;1.02;;
53293;SDS011;39181;53.440;5.644;2022-07-06T13:19:28;7.35;;;1.10;;
53293;SDS011;39181;53.440;5.644;2022-07-06T13:21:54;6.50;;;1.15;;
53293;SDS011;39181;53.440;5.644;2022-07-06T13:24:19;6.63;;;1.15;;
53293;SDS011;39181;53.440;5.644;2022-07-06T13:26:45;5.60;;;0.80;;
53293;SDS011;39181;53.440;5.644;2022-07-06T13:29:11;5.80;;;1.10;;
53293;SDS011;39181;53.440;5.644;2022-07-06T13:31:38;8.13;;;1.05;;
53293;SDS011;39181;53.440;5.644;2022-07-06T13:34:04;4.55;;;0.80;;
53293;SDS011;39181;53.440;5.644;2022-07-06T13:36:31;5.00;;;1.20;;
53293;SDS011;39181;53.440;5.644;2022-07-06T13:38:57;4.63;;;0.98;;
53293;SDS011;39181;53.440;5.644;2022-07-06T13:41:22;6.72;;;1.00;;
53293;SDS011;39181;53.440;5.644;2022-07-06T13:43:48;7.63;;;1.30;;
53293;SDS011;39181;53.440;5.644;2022-07-06T13:46:14;6.43;;;1.40;;
53293;SDS011;39181;53.440;5.644;2022-07-06T13:48:41;5.07;;;1.20;;
53293;SDS011;39181;53.440;5.644;2022-07-06T13:51:07;5.35;;;1.52;;
53293;SDS011;39181;53.440;5.644;2022-07-06T13:53:32;9.18;;;1.25;;
53293;SDS011;39181;53.440;5.644;2022-07-06T13:55:58;4.90;;;1.13;;
53293;SDS011;39181;53.440;5.644;2022-07-06T13:58:24;8.10;;;1.20;;
53293;SDS011;39181;53.440;5.644;2022-07-06T14:00:49;9.23;;;1.20;;
53293;SDS011;39181;53.440;5.644;2022-07-06T14:03:15;6.03;;;1.30;;
53293;SDS011;39181;53.440;5.644;2022-07-06T14:05:41;3.83;;;1.02;;
53293;SDS011;39181;53.440;5.644;2022-07-06T14:08:07;4.57;;;0.90;;
53293;SDS011;39181;53.440;5.644;2022-07-06T14:10:33;8.50;;;1.40;;
53293;SDS011;39181;53.440;5.644;2022-07-06T14:12:58;7.30;;;1.23;;
53293;SDS011;39181;53.440;5.644;2022-07-06T14:15:24;7.18;;;1.30;;
53293;SDS011;39181;53.440;5.644;2022-07-06T14:17:49;6.38;;;1.50;;
53293;SDS011;39181;53.440;5.644;2022-07-06T14:20:15;6.80;;;1.60;;
53293;SDS011;39181;53.440;5.644;2022-07-06T14:22:41;4.75;;;1.40;;
53293;SDS011;39181;53.440;5.644;2022-07-06T14:25:07;7.90;;;1.67;;
53293;SDS011;39181;53.440;5.644;2022-07-06T14:27:34;7.57;;;1.60;;
53293;SDS011;39181;53.440;5.644;2022-07-06T14:30:00;9.25;;;1.48;;
53293;SDS011;39181;53.440;5.644;2022-07-06T14:32:25;4.75;;;1.20;;
53293;SDS011;39181;53.440;5.644;2022-07-06T14:34:51;6.53;;;1.30;;
53293;SDS011;39181;53.440;5.644;2022-07-06T14:37:16;9.20;;;1.20;;
53293;SDS011;39181;53.440;5.644;2022-07-06T14:39:42;3.35;;;0.98;;
53293;SDS011;39181;53.440;5.644;2022-07-06T14:42:10;4.97;;;1.23;;
53293;SDS011;39181;53.440;5.644;2022-07-06T14:44:35;3.95;;;1.00;;
53293;SDS011;39181;53.440;5.644;2022-07-06T14:47:01;3.30;;;0.90;;
53293;SDS011;39181;53.440;5.644;2022-07-06T14:49:27;3.72;;;1.00;;
53293;SDS011;39181;53.440;5.644;2022-07-06T14:51:52;5.90;;;0.88;;
53293;SDS011;39181;53.440;5.644;2022-07-06T14:54:18;3.67;;;1.00;;
53293;SDS011;39181;53.440;5.644;2022-07-06T14:56:43;4.63;;;1.40;;
53293;SDS011;39181;53.440;5.644;2022-07-06T14:59:09;3.72;;;1.40;;
53293;SDS011;39181;53.440;5.644;2022-07-06T15:01:35;2.63;;;1.00;;
53293;SDS011;39181;53.440;5.644;2022-07-06T15:04:00;6.55;;;1.60;;
53293;SDS011;39181;53.440;5.644;2022-07-06T15:06:26;6.95;;;1.80;;
53293;SDS011;39181;53.440;5.644;2022-07-06T15:08:53;5.93;;;1.90;;